Time;durP1;ratioP1;P1;durP2;ratioP2;P2;SDS_P1;SDS_P2;PMS_P1;PMS_P2;Temp;Humidity;BMP_temperature;BMP_pressure;BME280_temperature;BME280_humidity;BME280_pressure;Samples;Min_cycle;Max_cycle;Signal;HPM_P1;HPM_P2
2022/09/14 00:00:48;;;;;;;6.35;2.47;;;11.30;99.90;;;;;;5107185;28;20020;-49
2022/09/14 00:03:15;;;;;;;4.55;2.17;;;11.30;99.90;;;;;;5104565;28;20031;-54
2022/09/14 00:05:40;;;;;;;7.00;2.10;;;11.20;99.90;;;;;;5100297;28;20352;-54
2022/09/14 00:08:06;;;;;;;4.15;2.15;;;11.20;99.90;;;;;;5099540;28;20024;-56
2022/09/14 00:10:32;;;;;;;4.25;1.80;;;11.20;99.90;;;;;;5097695;28;20042;-53
2022/09/14 00:12:59;;;;;;;5.28;2.00;;;11.10;99.90;;;;;;5088476;28;20036;-54
2022/09/14 00:15:25;;;;;;;7.03;2.28;;;11.10;99.90;;;;;;5085002;28;20020;-54
2022/09/14 00:17:50;;;;;;;4.15;2.20;;;11.10;99.90;;;;;;5089578;28;20031;-53
2022/09/14 00:20:16;;;;;;;7.90;2.60;;;11.00;99.90;;;;;;5082773;28;20433;-52
2022/09/14 00:22:41;;;;;;;5.03;2.17;;;11.00;99.90;;;;;;5098422;28;20024;-57
2022/09/14 00:25:07;;;;;;;5.45;2.30;;;11.00;99.90;;;;;;5073332;28;20050;-54
2022/09/14 00:27:33;;;;;;;3.58;2.05;;;10.90;99.90;;;;;;5105278;28;20472;-51
2022/09/14 00:29:58;;;;;;;7.47;2.60;;;10.90;99.90;;;;;;5083432;28;20121;-54
2022/09/14 00:32:24;;;;;;;4.80;2.20;;;10.90;99.90;;;;;;5109012;28;20032;-52
2022/09/14 00:34:49;;;;;;;4.45;2.22;;;10.80;99.90;;;;;;5077167;28;20071;-54
2022/09/14 00:37:15;;;;;;;5.57;2.33;;;10.80;99.90;;;;;;5109639;28;20031;-54
2022/09/14 00:39:40;;;;;;;6.10;2.30;;;10.80;99.90;;;;;;5088970;28;20047;-56
2022/09/14 00:42:06;;;;;;;7.55;2.13;;;10.70;99.90;;;;;;5111320;28;20118;-52
2022/09/14 00:44:31;;;;;;;5.25;2.08;;;10.70;99.90;;;;;;5100533;28;20164;-51
2022/09/14 00:47:00;;;;;;;4.30;2.03;;;10.70;99.90;;;;;;5112555;28;20038;-54
2022/09/14 00:49:36;;;;;;;5.53;2.00;;;10.70;99.90;;;;;;5100085;28;20035;-55
2022/09/14 00:52:07;;;;;;;;;;;10.60;99.90;;;;;;5092653;28;20031;-55
2022/09/14 00:54:34;;;;;;;3.60;1.92;;;10.60;99.90;;;;;;5091452;28;19911;-54
2022/09/14 00:57:01;;;;;;;4.85;2.38;;;10.60;99.90;;;;;;5092439;28;20020;-51
2022/09/14 00:59:30;;;;;;;6.90;2.38;;;10.60;99.90;;;;;;5108757;28;20406;-55
2022/09/14 01:01:55;;;;;;;4.75;2.42;;;10.60;99.90;;;;;;5092124;28;20389;-55
2022/09/14 01:04:22;;;;;;;7.85;2.42;;;10.50;99.90;;;;;;5109590;28;20047;-53
2022/09/14 01:07:17;;;;;;;6.38;2.17;;;10.50;99.90;;;;;;5092243;28;20028;-55
2022/09/14 01:09:48;;;;;;;4.32;2.05;;;10.50;99.90;;;;;;5092807;28;20030;-53
2022/09/14 01:12:25;;;;;;;5.05;2.08;;;10.40;99.90;;;;;;5071702;28;20024;-53
2022/09/14 01:15:15;;;;;;;6.80;2.80;;;10.40;99.90;;;;;;5094751;28;20028;-55
2022/09/14 01:18:08;;;;;;;3.88;2.00;;;10.40;99.90;;;;;;5071245;28;20495;-53
2022/09/14 01:20:52;;;;;;;5.55;2.47;;;10.30;99.90;;;;;;5106642;28;20494;-55
2022/09/14 01:23:32;;;;;;;6.60;2.00;;;10.30;99.90;;;;;;5083133;28;20032;-55
2022/09/14 01:26:16;;;;;;;6.90;2.05;;;10.30;99.90;;;;;;5071431;28;20077;-55
2022/09/14 01:29:00;;;;;;;5.57;2.50;;;10.30;99.90;;;;;;5074674;28;20082;-56
2022/09/14 01:31:45;;;;;;;8.60;2.30;;;10.20;99.90;;;;;;5112038;28;20020;-55
2022/09/14 01:34:15;;;;;;;3.67;1.98;;;10.20;99.90;;;;;;5081913;28;20499;-54
2022/09/14 01:36:46;;;;;;;2.83;2.28;;;10.20;99.90;;;;;;5111633;28;20020;-55
2022/09/14 01:39:13;;;;;;;7.90;2.17;;;10.10;99.90;;;;;;5082027;28;20097;-55
2022/09/14 01:41:41;;;;;;;6.30;2.10;;;10.10;99.90;;;;;;5110762;28;20012;-51
2022/09/14 01:44:19;;;;;;;6.85;2.15;;;10.10;99.90;;;;;;5094906;28;20035;-53
2022/09/14 01:47:00;;;;;;;3.03;2.10;;;10.10;99.90;;;;;;5111840;28;20023;-56
2022/09/14 01:49:41;;;;;;;9.98;2.25;;;10.00;99.90;;;;;;5085183;28;20024;-51
2022/09/14 01:52:12;;;;;;;4.22;1.92;;;10.00;99.90;;;;;;5071094;28;20020;-52
2022/09/14 01:55:15;;;;;;;7.43;2.40;;;10.00;99.90;;;;;;5088365;28;20039;-68
2022/09/14 01:57:56;;;;;;;4.38;1.95;;;10.00;99.90;;;;;;5097825;28;20529;-69
2022/09/14 02:00:22;;;;;;;3.78;1.90;;;10.00;99.90;;;;;;5100454;28;20027;-68
2022/09/14 02:03:00;;;;;;;5.47;2.53;;;10.00;99.90;;;;;;5111034;28;20038;-68
2022/09/14 02:05:33;;;;;;;3.35;2.47;;;9.90;99.90;;;;;;5101177;28;20043;-68
2022/09/14 02:07:59;;;;;;;4.57;2.08;;;9.90;99.90;;;;;;5070344;28;20484;-68
2022/09/14 02:10:25;;;;;;;8.45;2.55;;;9.90;99.90;;;;;;5107387;28;20053;-68
2022/09/14 02:12:52;;;;;;;3.63;2.15;;;9.90;99.90;;;;;;5110880;28;20031;-68
2022/09/14 02:15:18;;;;;;;5.15;2.30;;;9.90;99.90;;;;;;5089079;28;20438;-68
2022/09/14 02:17:44;;;;;;;4.22;2.13;;;9.90;99.90;;;;;;5110083;28;20038;-69
2022/09/14 02:20:27;;;;;;;5.90;2.22;;;9.90;99.90;;;;;;5087981;28;20051;-68
2022/09/14 02:22:53;;;;;;;3.60;2.03;;;9.90;99.90;;;;;;5075651;28;20026;-69
2022/09/14 02:25:19;;;;;;;6.45;2.20;;;9.80;99.90;;;;;;5109150;28;20035;-68
2022/09/14 02:27:46;;;;;;;4.50;2.08;;;9.80;99.90;;;;;;5090870;28;20024;-69
2022/09/14 02:30:12;;;;;;;4.95;2.50;;;9.80;99.90;;;;;;5108544;28;20024;-69
2022/09/14 02:32:59;;;;;;;5.15;2.35;;;9.80;99.90;;;;;;5110669;28;20135;-69
2022/09/14 02:35:32;;;;;;;5.93;2.28;;;9.80;99.90;;;;;;5097167;28;20673;-68
2022/09/14 02:38:14;;;;;;;5.32;2.03;;;9.80;99.90;;;;;;5070077;28;20481;-69
2022/09/14 02:40:52;;;;;;;3.67;2.10;;;9.80;99.90;;;;;;5102446;28;20027;-69
2022/09/14 02:43:38;;;;;;;5.20;2.58;;;9.80;99.90;;;;;;5069853;28;20511;-68
2022/09/14 02:46:35;;;;;;;4.47;2.30;;;9.80;99.90;;;;;;5110085;28;20567;-69
2022/09/14 02:49:04;;;;;;;;;;;9.80;99.90;;;;;;5074151;28;20029;-68
2022/09/14 02:51:34;;;;;;;11.57;2.20;;;9.80;99.90;;;;;;5110143;28;19957;-69
2022/09/14 02:54:14;;;;;;;4.70;2.13;;;9.80;99.90;;;;;;5072844;28;20047;-68
2022/09/14 02:56:40;;;;;;;8.63;2.33;;;9.80;99.90;;;;;;5110231;28;20027;-69
2022/09/14 02:59:06;;;;;;;5.80;2.20;;;9.80;99.90;;;;;;5106684;28;20040;-69
2022/09/14 03:01:32;;;;;;;4.45;2.30;;;9.80;99.90;;;;;;5110194;28;20080;-69
2022/09/14 03:03:57;;;;;;;7.30;2.50;;;9.70;99.90;;;;;;5088895;28;20028;-69
2022/09/14 03:06:23;;;;;;;3.20;2.15;;;9.70;99.90;;;;;;5110177;28;20050;-69
2022/09/14 03:08:49;;;;;;;8.23;2.50;;;9.70;99.90;;;;;;5087366;28;20020;-68
2022/09/14 03:11:15;;;;;;;6.30;3.03;;;9.70;99.90;;;;;;5110206;28;20020;-68
2022/09/14 03:13:40;;;;;;;7.07;3.50;;;9.70;99.90;;;;;;5088578;28;20040;-69
2022/09/14 03:16:08;;;;;;;11.48;4.10;;;9.70;99.90;;;;;;5105889;28;20058;-69
2022/09/14 03:18:34;;;;;;;12.27;4.60;;;9.60;99.90;;;;;;5089598;28;20036;-68
2022/09/14 03:21:10;;;;;;;9.68;4.20;;;9.60;99.90;;;;;;5107304;28;20028;-69
2022/09/14 03:23:47;;;;;;;9.77;4.35;;;9.60;99.90;;;;;;5095396;28;20039;-59
2022/09/14 03:26:15;;;;;;;10.70;4.15;;;9.60;99.90;;;;;;5069182;28;20032;-57
2022/09/14 03:28:42;;;;;;;7.22;3.42;;;9.60;99.90;;;;;;5108800;28;20061;-57
2022/09/14 03:31:09;;;;;;;6.82;3.17;;;9.60;99.90;;;;;;5087817;28;20717;-56
2022/09/14 03:33:35;;;;;;;7.22;3.47;;;9.60;99.90;;;;;;5109381;28;20020;-56
2022/09/14 03:36:08;;;;;;;9.10;3.30;;;9.60;99.90;;;;;;5087764;28;20070;-54
2022/09/14 03:38:33;;;;;;;7.25;3.53;;;9.60;99.90;;;;;;5068823;28;20031;-53
2022/09/14 03:40:59;;;;;;;6.38;2.88;;;9.60;99.90;;;;;;5106484;28;20415;-53
2022/09/14 03:43:26;;;;;;;9.52;3.30;;;9.60;99.90;;;;;;5109261;28;20074;-54
2022/09/14 03:45:51;;;;;;;6.88;3.35;;;9.60;99.90;;;;;;5087641;28;20023;-56
2022/09/14 03:48:17;;;;;;;12.43;3.85;;;9.60;99.90;;;;;;5108790;28;20122;-53
2022/09/14 03:50:43;;;;;;;9.05;4.35;;;9.60;99.90;;;;;;5087646;28;20409;-52
2022/09/14 03:53:08;;;;;;;8.25;3.70;;;9.60;99.90;;;;;;5108858;28;20448;-54
2022/09/14 03:55:34;;;;;;;6.60;3.42;;;9.60;99.90;;;;;;5085591;28;20404;-53
2022/09/14 03:57:59;;;;;;;6.45;3.63;;;9.60;99.90;;;;;;5089031;28;20080;-53
2022/09/14 04:00:25;;;;;;;6.32;3.30;;;9.60;99.90;;;;;;5106668;28;20035;-56
2022/09/14 04:02:50;;;;;;;7.68;3.80;;;9.60;99.90;;;;;;5109301;28;20032;-56
2022/09/14 04:05:16;;;;;;;6.20;3.53;;;9.60;99.90;;;;;;5090286;28;20036;-52
2022/09/14 04:07:41;;;;;;;7.65;3.30;;;9.60;99.90;;;;;;5100290;28;20028;-52
2022/09/14 04:10:07;;;;;;;7.10;4.13;;;9.60;99.90;;;;;;5103797;28;20038;-56
2022/09/14 04:12:35;;;;;;;6.72;3.30;;;9.60;99.90;;;;;;5095928;27;20036;-56
2022/09/14 04:15:00;;;;;;;8.13;3.17;;;9.60;99.90;;;;;;5113857;28;20023;-55
2022/09/14 04:17:27;;;;;;;10.52;3.30;;;9.60;99.90;;;;;;5096037;27;20044;-53
2022/09/14 04:19:52;;;;;;;5.78;2.72;;;9.60;99.90;;;;;;5113462;28;20038;-54
2022/09/14 04:22:18;;;;;;;9.40;3.65;;;9.60;99.90;;;;;;5114839;28;20020;-55
2022/09/14 04:24:43;;;;;;;5.00;3.15;;;9.60;99.90;;;;;;5094937;28;20031;-56
2022/09/14 04:27:09;;;;;;;3.90;2.75;;;9.60;99.90;;;;;;5116154;27;20034;-55
2022/09/14 04:29:34;;;;;;;6.32;3.20;;;9.60;99.90;;;;;;5097550;28;20073;-52
2022/09/14 04:32:00;;;;;;;5.05;2.90;;;9.60;99.90;;;;;;5115767;27;20106;-56
2022/09/14 04:34:26;;;;;;;3.88;2.90;;;9.60;99.90;;;;;;5099686;27;20769;-54
2022/09/14 04:36:51;;;;;;;5.75;3.20;;;9.60;99.90;;;;;;5115809;28;20012;-56
2022/09/14 04:39:17;;;;;;;5.18;3.00;;;9.60;99.90;;;;;;5114001;28;20077;-54
2022/09/14 04:41:42;;;;;;;10.45;3.35;;;9.60;99.90;;;;;;5101754;28;20074;-53
2022/09/14 04:44:08;;;;;;;5.03;2.80;;;9.60;99.90;;;;;;5104999;28;20062;-57
2022/09/14 04:46:34;;;;;;;9.88;3.10;;;9.60;99.90;;;;;;5115753;28;20031;-55
2022/09/14 04:49:00;;;;;;;8.60;3.42;;;9.70;99.90;;;;;;5095637;27;20032;-58
2022/09/14 04:51:28;;;;;;;5.25;2.60;;;9.70;99.90;;;;;;5113297;28;20119;-56
2022/09/14 04:53:55;;;;;;;4.72;2.70;;;9.70;99.90;;;;;;5095400;27;20077;-52
2022/09/14 04:56:22;;;;;;;5.00;2.83;;;9.70;99.90;;;;;;5113479;28;20487;-52
2022/09/14 04:58:50;;;;;;;7.15;3.30;;;9.80;99.90;;;;;;5115440;27;20269;-54
2022/09/14 05:01:19;;;;;;;5.47;3.10;;;9.80;99.90;;;;;;5093160;27;20051;-55
2022/09/14 05:03:44;;;;;;;7.25;3.25;;;9.90;99.90;;;;;;5115263;28;20445;-55
2022/09/14 05:06:13;;;;;;;6.63;3.30;;;10.00;99.90;;;;;;5092550;28;20115;-53
2022/09/14 05:08:39;;;;;;;7.63;3.30;;;10.10;99.90;;;;;;5115089;28;20605;-55
2022/09/14 05:11:06;;;;;;;4.53;3.38;;;10.20;99.90;;;;;;5094025;28;20119;-49
2022/09/14 05:13:33;;;;;;;6.53;3.60;;;10.30;99.90;;;;;;5101317;28;20036;-51
2022/09/14 05:16:20;;;;;;;7.28;3.58;;;10.40;99.90;;;;;;5112200;28;20050;-55
2022/09/14 05:18:45;;;;;;;8.98;3.53;;;10.50;99.90;;;;;;5071677;28;20025;-53
2022/09/14 05:21:13;;;;;;;6.88;3.78;;;10.60;99.90;;;;;;5108938;28;20084;-53
2022/09/14 05:23:39;;;;;;;8.27;4.07;;;10.70;99.90;;;;;;5095153;28;20519;-56
2022/09/14 05:26:06;;;;;;;9.07;3.33;;;10.80;99.90;;;;;;5109661;28;20090;-55
2022/09/14 05:28:32;;;;;;;5.95;3.20;;;10.80;99.90;;;;;;5111693;28;20533;-56
2022/09/14 05:30:58;;;;;;;6.03;3.00;;;10.90;99.90;;;;;;5089989;28;20561;-54
2022/09/14 05:33:24;;;;;;;6.85;2.92;;;10.90;99.90;;;;;;5111214;28;20029;-53
2022/09/14 05:35:51;;;;;;;4.88;3.05;;;11.00;99.90;;;;;;5089852;28;20044;-56
2022/09/14 05:38:16;;;;;;;7.40;3.17;;;11.10;99.90;;;;;;5111097;28;20043;-53
2022/09/14 05:40:42;;;;;;;5.95;3.50;;;11.10;99.90;;;;;;5089912;28;20028;-56
2022/09/14 05:43:08;;;;;;;5.28;3.05;;;11.20;99.90;;;;;;5110949;28;20038;-52
2022/09/14 05:45:34;;;;;;;4.00;2.78;;;11.40;99.90;;;;;;5100687;28;20072;-55
2022/09/14 05:48:03;;;;;;;6.75;2.80;;;11.50;99.90;;;;;;5091414;28;20031;-54
2022/09/14 05:50:32;;;;;;;7.30;2.95;;;11.70;99.90;;;;;;5109222;28;20039;-55
2022/09/14 05:52:58;;;;;;;5.63;2.65;;;11.70;99.90;;;;;;5091162;28;20032;-55
2022/09/14 05:55:23;;;;;;;5.65;2.67;;;11.90;99.90;;;;;;5108513;28;20514;-50
2022/09/14 05:57:49;;;;;;;4.22;3.20;;;12.00;99.90;;;;;;5091536;28;20032;-51
2022/09/14 06:00:15;;;;;;;5.10;3.00;;;12.30;99.90;;;;;;5108483;28;20478;-53
2022/09/14 06:02:48;;;;;;;4.88;2.97;;;12.50;99.90;;;;;;5090057;28;20449;-55
2022/09/14 06:05:15;;;;;;;7.40;3.10;;;12.80;99.90;;;;;;5082659;28;20430;-54
2022/09/14 06:07:40;;;;;;;5.25;2.55;;;13.00;99.90;;;;;;5111071;28;20026;-54
2022/09/14 06:10:07;;;;;;;6.22;2.88;;;13.10;99.90;;;;;;5095482;28;20031;-55
2022/09/14 06:12:32;;;;;;;6.00;2.90;;;13.20;99.90;;;;;;5111109;28;20384;-53
2022/09/14 06:14:58;;;;;;;8.23;2.83;;;13.30;99.90;;;;;;5094117;28;20035;-55
2022/09/14 06:17:23;;;;;;;7.82;3.05;;;13.40;99.90;;;;;;5110985;28;20027;-53
2022/09/14 06:19:49;;;;;;;5.60;3.30;;;13.50;99.90;;;;;;5092672;28;20103;-54
2022/09/14 06:22:14;;;;;;;6.65;2.92;;;13.70;99.90;;;;;;5110846;28;20057;-55
2022/09/14 06:24:40;;;;;;;3.38;2.72;;;13.90;99.90;;;;;;5084499;28;20028;-56
2022/09/14 06:27:07;;;;;;;3.88;2.33;;;14.00;99.90;;;;;;5110759;28;20031;-55
2022/09/14 06:29:33;;;;;;;3.92;2.20;;;14.20;99.90;;;;;;5089335;28;20086;-50
2022/09/14 06:31:59;;;;;;;4.43;2.53;;;14.50;99.90;;;;;;5109206;28;20570;-51
2022/09/14 06:34:24;;;;;;;4.00;2.30;;;14.90;99.90;;;;;;5096280;28;20124;-55
2022/09/14 06:36:50;;;;;;;4.95;2.50;;;15.20;99.90;;;;;;5108799;28;20046;-55
2022/09/14 06:39:16;;;;;;;5.38;2.47;;;15.30;99.90;;;;;;5110394;28;20054;-51
2022/09/14 06:41:41;;;;;;;4.80;2.30;;;15.40;99.90;;;;;;5085269;28;20063;-57
2022/09/14 06:44:07;;;;;;;3.08;2.13;;;15.70;99.90;;;;;;5088081;28;20108;-58
2022/09/14 06:46:33;;;;;;;7.53;2.42;;;16.30;99.90;;;;;;5086485;28;20028;-57
2022/09/14 06:49:04;;;;;;;3.70;1.88;;;16.90;99.90;;;;;;5088206;28;20028;-56
2022/09/14 06:51:41;;;;;;;6.32;2.13;;;17.40;99.90;;;;;;5083607;28;20168;-57
2022/09/14 06:54:08;;;;;;;1.55;1.40;;;18.00;99.90;;;;;;5073330;28;20032;-56
2022/09/14 06:56:38;;;;;;;4.70;1.38;;;18.70;99.90;;;;;;5086224;28;20043;-56
2022/09/14 06:59:05;;;;;;;3.33;1.80;;;19.80;99.90;;;;;;5104505;28;20395;-56
2022/09/14 07:01:31;;;;;;;2.90;1.55;;;20.70;99.90;;;;;;5086794;28;20030;-51
2022/09/14 07:03:57;;;;;;;4.22;1.67;;;21.60;99.90;;;;;;5108010;28;20327;-54
2022/09/14 07:06:25;;;;;;;2.75;1.70;;;22.10;99.40;;;;;;5087164;28;20027;-56
2022/09/14 07:08:51;;;;;;;4.75;1.90;;;22.40;98.50;;;;;;5088241;28;20025;-57
2022/09/14 07:11:20;;;;;;;3.15;1.70;;;22.80;96.00;;;;;;5086188;28;20031;-57
2022/09/14 07:13:46;;;;;;;2.40;1.52;;;23.20;94.70;;;;;;5108303;28;20023;-55
2022/09/14 07:16:12;;;;;;;4.85;1.50;;;23.20;95.60;;;;;;5086754;28;20016;-51
2022/09/14 07:18:38;;;;;;;2.80;1.65;;;22.80;93.20;;;;;;5107745;28;20441;-57
2022/09/14 07:21:04;;;;;;;3.83;1.67;;;22.30;94.60;;;;;;5087116;28;20024;-54
2022/09/14 07:23:30;;;;;;;4.18;1.30;;;22.00;95.50;;;;;;5094576;28;20036;-53
2022/09/14 07:26:00;;;;;;;3.15;1.52;;;21.60;95.20;;;;;;5105952;28;20035;-51
2022/09/14 07:28:26;;;;;;;7.75;1.80;;;21.40;96.60;;;;;;5088383;28;20494;-53
2022/09/14 07:30:52;;;;;;;2.45;1.10;;;21.10;95.80;;;;;;5105518;28;20024;-53
2022/09/14 07:33:17;;;;;;;4.18;1.55;;;20.90;96.80;;;;;;5087971;28;20023;-64
2022/09/14 07:35:42;;;;;;;4.72;1.50;;;20.70;96.40;;;;;;5105073;28;20060;-65
2022/09/14 07:38:08;;;;;;;4.32;1.38;;;20.60;97.30;;;;;;5088605;28;20024;-65
2022/09/14 07:40:33;;;;;;;4.22;1.27;;;20.70;95.60;;;;;;5104768;28;20036;-66
2022/09/14 07:43:00;;;;;;;6.53;1.80;;;21.10;96.20;;;;;;5108340;28;20028;-65
2022/09/14 07:45:26;;;;;;;6.22;1.27;;;21.40;94.60;;;;;;5092495;28;20024;-65
2022/09/14 07:47:51;;;;;;;3.15;1.27;;;21.70;93.40;;;;;;5107832;28;20034;-64
2022/09/14 07:50:17;;;;;;;2.25;1.10;;;21.90;91.60;;;;;;5091213;28;20035;-65
2022/09/14 07:52:43;;;;;;;2.53;1.00;;;22.00;91.30;;;;;;5107986;28;20028;-65
2022/09/14 07:55:11;;;;;;;3.20;1.30;;;22.10;91.20;;;;;;5089971;28;20040;-52
2022/09/14 07:57:37;;;;;;;3.78;1.13;;;22.30;91.30;;;;;;5108102;28;20016;-63
2022/09/14 08:00:03;;;;;;;3.80;1.30;;;22.40;91.50;;;;;;5088276;28;20032;-64
2022/09/14 08:02:29;;;;;;;5.13;1.38;;;22.70;89.90;;;;;;5088426;28;20012;-64
2022/09/14 08:04:55;;;;;;;4.82;1.40;;;23.00;87.70;;;;;;5085418;28;20032;-62
2022/09/14 08:07:20;;;;;;;3.20;1.20;;;23.30;86.00;;;;;;5104542;28;20361;-63
2022/09/14 08:09:46;;;;;;;4.38;1.30;;;23.40;82.10;;;;;;5085732;28;20032;-61
2022/09/14 08:12:14;;;;;;;3.67;1.30;;;23.50;79.10;;;;;;5067088;28;20032;-63
2022/09/14 08:14:39;;;;;;;3.20;1.45;;;23.50;77.20;;;;;;5107178;28;20387;-62
2022/09/14 08:17:05;;;;;;;3.10;1.50;;;23.50;75.40;;;;;;5086006;28;20036;-63
2022/09/14 08:19:30;;;;;;;5.45;1.35;;;23.60;71.30;;;;;;5106889;28;20035;-63
2022/09/14 08:21:56;;;;;;;3.40;1.30;;;23.60;69.20;;;;;;5086051;28;20036;-63
2022/09/14 08:24:22;;;;;;;5.55;1.45;;;23.50;67.80;;;;;;5100732;28;20024;-63
2022/09/14 08:26:48;;;;;;;7.43;2.00;;;23.60;66.80;;;;;;5084835;28;20369;-63
2022/09/14 08:29:16;;;;;;;4.68;1.35;;;23.70;66.30;;;;;;5107013;28;20024;-63
2022/09/14 08:31:44;;;;;;;6.97;1.52;;;23.70;65.60;;;;;;5085695;28;20028;-63
2022/09/14 08:34:09;;;;;;;4.60;1.27;;;23.50;61.90;;;;;;5103698;28;20036;-62
2022/09/14 08:36:37;;;;;;;4.85;1.50;;;23.30;59.00;;;;;;5088343;28;20256;-63
2022/09/14 08:39:07;;;;;;;5.28;1.55;;;23.20;58.80;;;;;;5087189;28;20043;-62
2022/09/14 08:41:42;;;;;;;4.45;1.58;;;23.20;58.40;;;;;;5091553;28;20032;-62
2022/09/14 08:44:10;;;;;;;4.30;1.40;;;23.10;57.50;;;;;;5071905;28;20468;-62
2022/09/14 08:46:43;;;;;;;3.90;1.30;;;23.20;57.50;;;;;;5085089;28;20020;-63
2022/09/14 08:49:45;;;;;;;2.65;1.35;;;23.20;55.90;;;;;;5083519;28;20040;-61
2022/09/14 08:52:22;;;;;;;2.80;1.17;;;23.40;46.80;;;;;;5104535;28;20043;-62
2022/09/14 08:54:51;;;;;;;4.85;1.70;;;23.50;53.00;;;;;;5071586;28;20035;-62
2022/09/14 08:57:21;;;;;;;3.78;1.20;;;23.60;52.70;;;;;;5109067;28;20612;-62
2022/09/14 09:00:01;;;;;;;6.90;1.67;;;23.80;52.50;;;;;;5086569;28;20024;-61
2022/09/14 09:02:42;;;;;;;4.25;1.38;;;23.90;49.60;;;;;;5070225;28;20060;-62
2022/09/14 09:05:32;;;;;;;2.65;1.10;;;24.00;47.90;;;;;;5071628;28;20492;-62
2022/09/14 09:08:23;;;;;;;3.72;1.13;;;24.00;39.20;;;;;;5111172;28;20068;-62
2022/09/14 09:10:52;;;;;;;5.72;1.38;;;23.90;38.90;;;;;;5082746;28;20064;-63
2022/09/14 09:13:22;;;;;;;2.80;1.38;;;23.80;43.30;;;;;;5110723;28;20024;-61
2022/09/14 09:15:54;;;;;;;4.43;1.42;;;23.70;43.20;;;;;;5077497;28;20047;-62
2022/09/14 09:18:31;;;;;;;7.25;1.40;;;23.50;42.00;;;;;;5090546;28;20020;-62
2022/09/14 09:21:15;;;;;;;4.25;1.45;;;23.40;41.80;;;;;;5088329;28;20040;-61
2022/09/14 09:23:42;;;;;;;4.05;1.75;;;23.10;33.60;;;;;;5088172;28;20036;-61
2022/09/14 09:26:24;;;;;;;4.13;1.60;;;22.90;40.00;;;;;;5093997;28;20160;-61
2022/09/14 09:28:56;;;;;;;7.28;1.65;;;22.80;39.70;;;;;;5070381;28;20024;-61
2022/09/14 09:31:33;;;;;;;5.78;1.80;;;22.70;38.40;;;;;;5097717;28;20476;-61
2022/09/14 09:34:00;;;;;;;4.40;1.40;;;22.50;39.70;;;;;;5074032;28;20535;-61
2022/09/14 09:36:32;;;;;;;3.60;1.48;;;22.40;40.20;;;;;;5108410;28;20040;-61
2022/09/14 09:38:58;;;;;;;6.10;1.60;;;22.30;38.60;;;;;;5069678;28;20032;-60
2022/09/14 09:41:28;;;;;;;4.18;1.70;;;22.30;39.10;;;;;;5105987;28;20023;-60
2022/09/14 09:44:10;;;;;;;6.03;1.95;;;22.20;39.10;;;;;;5090486;28;20384;-61
2022/09/14 09:46:49;;;;;;;4.90;1.45;;;22.20;36.20;;;;;;5093643;28;20039;-61
2022/09/14 09:49:38;;;;;;;3.92;1.50;;;22.30;38.40;;;;;;5110216;28;20027;-61
2022/09/14 09:52:11;;;;;;;4.15;1.17;;;22.30;36.00;;;;;;5088471;28;20495;-61
2022/09/14 09:54:39;;;;;;;4.97;1.65;;;22.30;38.30;;;;;;5069692;28;20048;-61
2022/09/14 09:57:25;;;;;;;4.68;1.40;;;22.30;38.90;;;;;;5107704;28;20491;-61
2022/09/14 10:00:06;;;;;;;4.50;1.42;;;22.40;38.10;;;;;;5069456;28;20036;-61
2022/09/14 10:02:32;;;;;;;3.63;1.40;;;22.60;38.70;;;;;;5107051;28;20036;-61
2022/09/14 10:05:09;;;;;;;4.72;1.88;;;22.60;38.40;;;;;;5109447;28;20016;-61
2022/09/14 10:07:59;;;;;;;4.60;1.45;;;22.50;36.30;;;;;;5110053;28;20123;-61
2022/09/14 10:10:46;;;;;;;3.58;1.38;;;22.50;34.70;;;;;;5071553;28;20028;-61
2022/09/14 10:13:28;;;;;;;3.42;1.33;;;22.30;32.50;;;;;;5109745;28;20053;-60
2022/09/14 10:16:11;;;;;;;3.00;1.10;;;22.30;36.90;;;;;;5078896;28;20106;-60
2022/09/14 10:18:42;;;;;;;3.30;1.10;;;22.30;36.20;;;;;;5109815;28;20031;-61
2022/09/14 10:21:08;;;;;;;6.00;1.65;;;22.30;35.80;;;;;;5082915;28;20093;-61
2022/09/14 10:23:36;;;;;;;2.85;1.40;;;22.30;36.00;;;;;;5096053;28;20055;-61
2022/09/14 10:26:11;;;;;;;3.42;1.42;;;22.20;35.90;;;;;;5094462;28;20031;-60
2022/09/14 10:28:38;;;;;;;3.15;1.60;;;22.20;35.50;;;;;;5089684;28;20557;-61
2022/09/14 10:31:18;;;;;;;3.22;1.38;;;22.10;36.30;;;;;;5106990;28;20030;-60
2022/09/14 10:33:45;;;;;;;6.03;1.38;;;22.00;35.10;;;;;;5068704;28;20492;-59
2022/09/14 10:36:30;;;;;;;5.20;1.45;;;21.90;36.00;;;;;;5107277;28;20522;-60
2022/09/14 10:39:18;;;;;;;4.20;1.60;;;21.80;36.00;;;;;;5068406;28;20041;-60
2022/09/14 10:42:02;;;;;;;7.93;1.55;;;21.80;36.00;;;;;;5091588;28;20476;-61
2022/09/14 10:44:47;;;;;;;7.28;1.85;;;21.70;35.40;;;;;;5089267;28;20107;-60
2022/09/14 10:47:27;;;;;;;3.35;1.30;;;21.80;35.60;;;;;;5097760;28;20059;-60
2022/09/14 10:50:01;;;;;;;1.98;1.08;;;21.80;35.10;;;;;;5068800;28;20056;-60
2022/09/14 10:52:53;;;;;;;4.63;1.33;;;21.90;35.50;;;;;;5102349;28;20051;-60
2022/09/14 10:55:43;;;;;;;5.20;1.63;;;21.90;34.90;;;;;;5067588;28;20033;-60
2022/09/14 10:58:23;;;;;;;3.33;1.35;;;22.00;34.20;;;;;;5068569;28;20032;-61
2022/09/14 11:00:56;;;;;;;2.65;1.42;;;22.00;34.70;;;;;;5072885;28;20022;-60
2022/09/14 11:03:30;;;;;;;3.97;1.40;;;22.10;34.80;;;;;;5108575;28;20030;-60
2022/09/14 11:06:07;;;;;;;5.05;1.45;;;22.20;34.30;;;;;;5090026;28;20023;-61
2022/09/14 11:08:45;;;;;;;4.55;1.40;;;22.20;31.40;;;;;;5108918;28;20561;-61
2022/09/14 11:11:22;;;;;;;5.65;1.30;;;22.20;32.60;;;;;;5080185;28;20023;-62
2022/09/14 11:13:57;;;;;;;5.85;1.25;;;22.30;32.70;;;;;;5089061;28;20032;-61
2022/09/14 11:16:49;;;;;;;3.63;1.38;;;22.20;33.40;;;;;;5082957;28;20450;-61
2022/09/14 11:19:50;;;;;;;4.28;1.50;;;22.30;33.00;;;;;;5068251;28;20029;-61
2022/09/14 11:22:50;;;;;;;3.80;1.30;;;22.40;31.70;;;;;;5097782;28;20065;-61
2022/09/14 11:25:41;;;;;;;2.72;1.10;;;22.40;32.40;;;;;;5068176;28;20476;-61
2022/09/14 11:28:21;;;;;;;4.85;1.27;;;22.40;31.70;;;;;;5067867;28;20054;-62
2022/09/14 11:30:54;;;;;;;5.03;1.25;;;22.50;31.60;;;;;;5071536;28;20372;-62
2022/09/14 11:33:31;;;;;;;2.50;1.30;;;22.60;31.70;;;;;;5106761;28;20024;-72
2022/09/14 11:36:06;;;;;;;2.22;1.08;;;22.60;31.50;;;;;;5073904;28;20039;-74
2022/09/14 11:38:40;;;;;;;4.32;1.50;;;22.60;30.80;;;;;;5097176;28;20077;-73
2022/09/14 11:41:22;;;;;;;3.35;1.40;;;22.30;30.70;;;;;;5076033;28;20039;-71
2022/09/14 11:44:05;;;;;;;3.97;1.42;;;22.30;31.00;;;;;;5108190;28;20019;-72
2022/09/14 11:46:33;;;;;;;3.45;1.40;;;22.30;31.10;;;;;;5082908;28;20032;-72
2022/09/14 11:49:25;;;;;;;4.85;1.30;;;22.30;31.60;;;;;;5087946;28;20032;-71
2022/09/14 11:52:08;;;;;;;3.78;1.13;;;22.40;30.60;;;;;;5087998;28;20111;-72
2022/09/14 11:54:38;;;;;;;3.22;0.98;;;22.40;32.00;;;;;;5067756;28;20037;-73
2022/09/14 11:57:04;;;;;;;3.30;1.20;;;22.40;32.00;;;;;;5106327;28;20054;-72
2022/09/14 11:59:34;;;;;;;1.90;1.17;;;22.50;32.10;;;;;;5107617;28;20495;-72
2022/09/14 12:02:21;;;;;;;3.10;1.27;;;22.60;31.10;;;;;;5090354;28;20483;-72
2022/09/14 12:05:09;;;;;;;3.25;1.30;;;22.60;30.30;;;;;;5107612;28;20035;-73
2022/09/14 12:07:46;;;;;;;5.47;1.30;;;22.70;30.00;;;;;;5085702;28;20081;-72
2022/09/14 12:10:14;;;;;;;2.15;0.80;;;22.60;31.10;;;;;;5067235;28;20032;-71
2022/09/14 12:12:52;;;;;;;4.90;1.20;;;22.70;31.70;;;;;;5101268;28;20395;-72
2022/09/14 12:15:25;;;;;;;4.45;0.88;;;22.70;31.70;;;;;;5067570;28;20236;-71
2022/09/14 12:17:52;;;;;;;3.05;1.00;;;22.80;31.50;;;;;;5105414;28;20028;-72
2022/09/14 12:20:27;;;;;;;6.38;1.40;;;22.80;31.70;;;;;;5107644;28;20055;-70
2022/09/14 12:23:03;;;;;;;2.63;1.10;;;22.70;29.80;;;;;;5093293;28;20019;-71
2022/09/14 12:25:28;;;;;;;2.30;0.93;;;22.60;30.20;;;;;;5107786;28;20027;-72
2022/09/14 12:27:54;;;;;;;4.00;1.08;;;22.60;29.80;;;;;;5089926;28;20028;-72
2022/09/14 12:30:40;;;;;;;2.92;1.25;;;22.40;31.00;;;;;;5110576;28;20380;-72
2022/09/14 12:33:24;;;;;;;;;;;22.40;30.70;;;;;;5071799;28;20051;-72
2022/09/14 12:35:49;;;;;;;4.68;1.17;;;22.30;29.80;;;;;;5108138;28;19911;-70
2022/09/14 12:38:39;;;;;;;3.42;1.25;;;22.30;31.40;;;;;;5111642;28;20399;-69
2022/09/14 12:41:14;;;;;;;3.17;1.42;;;22.30;31.50;;;;;;5093280;28;20046;-70
2022/09/14 12:43:48;;;;;;;3.83;1.13;;;22.30;31.10;;;;;;5107951;28;20067;-72
2022/09/14 12:46:19;;;;;;;3.15;1.27;;;22.20;32.20;;;;;;5094800;28;20028;-72
2022/09/14 12:48:48;;;;;;;5.60;1.48;;;22.20;31.70;;;;;;5112516;28;20503;-72
2022/09/14 12:51:31;;;;;;;3.90;1.27;;;22.20;32.00;;;;;;5094894;28;20030;-72
2022/09/14 12:54:36;;;;;;;4.03;1.48;;;22.20;31.80;;;;;;5112769;28;20023;-73
2022/09/14 12:57:26;;;;;;;5.15;1.52;;;22.10;32.00;;;;;;5091684;28;20031;-73
2022/09/14 13:00:00;;;;;;;3.13;1.05;;;22.00;32.20;;;;;;5091815;28;20036;-72
2022/09/14 13:03:06;;;;;;;3.90;1.30;;;22.00;32.60;;;;;;5109938;28;20036;-73
2022/09/14 13:05:33;;;;;;;3.97;1.23;;;21.90;33.20;;;;;;5071517;28;20041;-72
2022/09/14 13:07:59;;;;;;;2.95;0.82;;;22.00;33.50;;;;;;5109677;28;20492;-73
2022/09/14 13:10:31;;;;;;;4.07;1.20;;;21.90;33.10;;;;;;5112398;28;20126;-73
2022/09/14 13:13:00;;;;;;;4.07;1.40;;;21.90;32.80;;;;;;5106435;28;20051;-73